Cfl Performer — PHLY — position and weather

sailwx.info

Track history (hours):
 
Tides and Currents Weather Stations Pressure Air Temp Water Temp Dewpoint Dewpoint Depression Visibility Wind Speed Wind Dir Waves Ship Positions

Cfl Performer

Last reported at 2015-Jul-01 23:33 UTC. Time now 2015-Jul-03 22:02 UTC.
Position N 50°06' W 002°17'.

Length 117 m; draft 6.1 m.

Type: Cargo ship. MMSI: 244989000.

Date/timePositionNaut miles runAvg speedWind from/ knotsBaromVisibWave heightAir tempDewpointWater temp
2015-Jul-01 23:33N 50°06' W 002°17'1110.5
2015-Jul-01 22:31N 50°09' W 002°01'8 8.7
2015-Jul-01 21:34N 50°11' W 001°48'8 7.2
2015-Jul-01 20:31N 50°13' W 001°37'32 7.8
2015-Jul-01 16:24N 50°22' W 000°49'3911.8
2015-Jul-01 13:08N 50°32' E 000°09'611.1
2015-Jul-01 12:34N 50°34' E 000°19'1110.6
2015-Jul-01 11:33N 50°37' E 000°35'9 9.4
2015-Jul-01 10:34N 50°43' E 000°47'9 9.2
2015-Jul-01 09:33N 50°49' E 000°58'10 9.7
2015-Jul-01 08:33N 50°55' E 001°10'1111.3
2015-Jul-01 07:33N 51°02' E 001°24'1413.6
2015-Jul-01 06:33N 51°11' E 001°40'1212.1
2015-Jul-01 05:33N 51°21' E 001°51'1110.7
2015-Jul-01 04:33N 51°30' E 001°60'1010.0
2015-Jul-01 03:33N 51°38' E 002°10'9 9.4
2015-Jul-01 02:33N 51°45' E 002°21'9 9.0
2015-Jul-01 01:32N 51°51' E 002°31'17 8.6
2015-Jun-30 23:33N 52°02' E 002°53'1110.1
2015-Jun-30 22:31N 52°02' E 003°10'1210.9
2015-Jun-30 21:27N 52°03' E 003°29'1011.7
2015-Jun-30 20:33N 52°04' E 003°46'1110.7
2015-Jun-30 19:33N 51°60' E 004°02'1212.1
2015-Jun-30 18:33N 51°54' E 004°19'9 8.5
2015-Jun-30 17:33N 51°50' E 004°31'7 7.1
2015-Jun-30 16:33N 51°44' E 004°38'3 3.0
2015-Jun-30 15:33N 51°41' E 004°36'0 0.0
2015-Jun-30 14:12N 51°41' E 004°36'0 0.0
2015-Jun-30 13:33N 51°41' E 004°36'0 0.0
2015-Jun-30 12:33N 51°41' E 004°36'0 0.0
2015-Jun-30 11:12N 51°41' E 004°36'0 0.0
2015-Jun-30 10:33N 51°41' E 004°36'0 0.0
2015-Jun-30 09:33N 51°41' E 004°36'0 0.0
2015-Jun-30 08:30N 51°41' E 004°36'0 0.0
2015-Jun-30 07:27N 51°41' E 004°36'0 0.0
2015-Jun-30 06:24N 51°41' E 004°36'0 0.0
2015-Jun-30 05:33N 51°41' E 004°36'0 0.0
2015-Jun-30 04:30N 51°41' E 004°36'0 0.0
2015-Jun-30 03:33N 51°41' E 004°36'0 0.0
2015-Jun-30 02:30N 51°41' E 004°36'0 0.0
2015-Jun-30 01:33N 51°41' E 004°36'0 0.0
2015-Jun-30 00:33N 51°41' E 004°36'0 0.0
2015-Jun-29 23:30N 51°41' E 004°36'0 0.0
2015-Jun-29 22:21N 51°41' E 004°36'0 0.0
2015-Jun-29 21:24N 51°41' E 004°36'0 0.0
2015-Jun-29 20:06N 51°41' E 004°36'0 0.0
2015-Jun-29 19:30N 51°41' E 004°36'0 0.0
2015-Jun-29 17:21N 51°41' E 004°36'0 0.0
2015-Jun-29 16:33N 51°41' E 004°36'0 0.0
2015-Jun-29 15:33N 51°41' E 004°36'0 0.0
2015-Jun-29 14:30N 51°41' E 004°36'0 0.0
2015-Jun-29 13:33N 51°41' E 004°36'0 0.0
2015-Jun-29 12:21N 51°41' E 004°36'0 0.0
2015-Jun-29 11:30N 51°41' E 004°36'0 0.0
2015-Jun-29 10:30N 51°41' E 004°36'0 0.0
2015-Jun-29 09:30N 51°41' E 004°36'0 0.0
2015-Jun-29 08:15N 51°41' E 004°36'0 0.0
2015-Jun-29 07:30N 51°41' E 004°36'0 0.0
2015-Jun-29 06:27N 51°41' E 004°36'0 0.0
2015-Jun-29 05:30N 51°41' E 004°36'0 0.0
2015-Jun-29 04:30N 51°41' E 004°36'0 0.0
2015-Jun-29 03:33N 51°41' E 004°36'0 0.0
2015-Jun-29 02:30N 51°41' E 004°36'0 0.0
2015-Jun-29 01:30N 51°41' E 004°36'0 0.0
2015-Jun-29 00:30N 51°41' E 004°36'0 0.0
2015-Jun-28 23:33N 51°41' E 004°36'0 0.0
2015-Jun-28 22:30N 51°41' E 004°36'0 0.0
2015-Jun-28 21:30N 51°41' E 004°36'0 0.0
2015-Jun-28 20:33N 51°41' E 004°36'0 0.0
2015-Jun-28 19:33N 51°41' E 004°36'0 0.0
2015-Jun-28 18:30N 51°41' E 004°36'0 0.0
2015-Jun-28 17:30N 51°41' E 004°36'0 0.0
2015-Jun-28 16:33N 51°41' E 004°36'0 0.0
2015-Jun-28 15:30N 51°41' E 004°36'0 0.0
2015-Jun-28 14:30N 51°41' E 004°36'0 0.0
2015-Jun-28 13:24N 51°41' E 004°36'0 0.0
2015-Jun-28 12:30N 51°41' E 004°36'0 0.0
2015-Jun-28 11:30N 51°41' E 004°36'0 0.0
2015-Jun-28 09:30N 51°41' E 004°36'0 0.0
2015-Jun-28 08:24N 51°41' E 004°36'0 0.0
2015-Jun-28 07:30N 51°41' E 004°36'0 0.0
2015-Jun-28 06:33N 51°41' E 004°36'0 0.0
2015-Jun-28 05:30N 51°41' E 004°36'0 0.0
2015-Jun-28 04:33N 51°41' E 004°36'0 0.0
2015-Jun-28 03:30N 51°41' E 004°36'0 0.0
2015-Jun-28 02:33N 51°41' E 004°36'0 0.0
2015-Jun-28 01:33N 51°41' E 004°36'0 0.0
2015-Jun-28 00:30N 51°41' E 004°36'0 0.0
2015-Jun-27 23:33N 51°41' E 004°36'0 0.0
2015-Jun-27 22:33N 51°41' E 004°36'0 0.0
2015-Jun-27 21:33N 51°41' E 004°36'0 0.0
2015-Jun-27 20:30N 51°41' E 004°36'0 0.0
2015-Jun-27 19:33N 51°41' E 004°36'0 0.0
2015-Jun-27 18:33N 51°41' E 004°36'0 0.0
2015-Jun-27 17:33N 51°41' E 004°36'0 0.0
2015-Jun-27 16:33N 51°41' E 004°36'0 0.0
2015-Jun-27 15:30N 51°41' E 004°36'0 0.0
2015-Jun-27 14:27N 51°41' E 004°36'0 0.0
2015-Jun-27 13:33N 51°41' E 004°36'0 0.0
2015-Jun-27 12:33N 51°41' E 004°36'0 0.0
2015-Jun-27 11:27N 51°41' E 004°36'0 0.0
2015-Jun-27 10:33N 51°41' E 004°36'0 0.0
2015-Jun-27 09:33N 51°41' E 004°36'0 0.0
2015-Jun-27 08:30N 51°41' E 004°36'0 0.0
2015-Jun-27 07:30N 51°41' E 004°36'0 0.0
2015-Jun-27 06:33N 51°41' E 004°36'7 6.8
2015-Jun-27 05:34N 51°48' E 004°37'9 9.3
2015-Jun-27 04:33N 51°51' E 004°22'8 8.5
2015-Jun-27 03:33N 51°56' E 004°12'10 9.7
2015-Jun-27 02:33N 51°60' E 003°57'1110.6
2015-Jun-27 01:33N 51°58' E 003°40'1111.1
2015-Jun-27 00:34N 51°55' E 003°23'3410.9
2015-Jun-26 21:28N 51°42' E 002°33'1311.6
2015-Jun-26 20:23N 51°33' E 002°19'1012.4
2015-Jun-26 19:33N 51°25' E 002°09'1211.7
2015-Jun-26 18:33N 51°14' E 002°04'1312.6
2015-Jun-26 17:34N 51°07' E 001°47'1313.0
2015-Jun-26 16:33N 50°58' E 001°31'1311.9
2015-Jun-26 15:26N 50°46' E 001°23'1211.4
2015-Jun-26 14:25N 50°37' E 001°12'1012.0
2015-Jun-26 13:33N 50°30' E 000°59'1512.1
2015-Jun-26 12:19N 50°25' E 000°37'911.4
2015-Jun-26 11:33N 50°23' E 000°24'1210.8
2015-Jun-26 10:28N 50°20' E 000°06'1111.5
2015-Jun-26 09:33N 50°17' W 000°10'1211.2
2015-Jun-26 08:31N 50°14' W 000°28'2711.1
2015-Jun-26 06:06N 50°07' W 001°08'611.3
2015-Jun-26 05:33N 50°06' W 001°17'1111.3
2015-Jun-26 04:33N 50°03' W 001°34'1111.2
2015-Jun-26 03:33N 49°59' W 001°51'1211.6
2015-Jun-26 02:33N 49°56' W 002°09'1111.4
2015-Jun-26 01:33N 49°53' W 002°25'8111.4
2015-Jun-25 18:24N 49°17' W 004°18'7011.2
2015-Jun-25 12:07N 48°35' W 005°44'1811.3
2015-Jun-25 10:33N 48°19' W 005°32'1111.3
2015-Jun-25 09:33N 48°09' W 005°24'1211.4
2015-Jun-25 08:28N 47°58' W 005°15'1011.3
2015-Jun-25 07:34N 47°53' W 005°02'1211.6
2015-Jun-25 06:33N 47°47' W 004°47'1211.5
2015-Jun-25 05:33N 47°42' W 004°32'1211.7
2015-Jun-25 04:33N 47°36' W 004°17'1211.7
2015-Jun-25 03:32N 47°30' W 004°02'1211.9
2015-Jun-25 02:33N 47°24' W 003°47'1211.8
2015-Jun-25 01:33N 47°18' W 003°31'1111.6
2015-Jun-25 00:33N 47°15' W 003°15'1212.0
2015-Jun-24 23:33N 47°13' W 002°58'1211.8
2015-Jun-24 22:33N 47°10' W 002°41'1211.7
2015-Jun-24 21:33N 47°08' W 002°24'10 9.9
2015-Jun-24 20:33N 47°15' W 002°14'5 5.2
2015-Jun-24 19:32N 47°18' W 002°08'0 0.0
2015-Jun-24 18:23N 47°18' W 002°08'0 0.0
2015-Jun-24 07:20N 47°18' W 002°08'0 0.0
2015-Jun-24 06:32N 47°18' W 002°08'0 0.0
2015-Jun-24 05:32N 47°18' W 002°08'0 0.0
2015-Jun-24 04:32N 47°18' W 002°08'0 0.0
2015-Jun-24 03:26N 47°18' W 002°08'0 0.0
2015-Jun-24 02:32N 47°18' W 002°08'0 0.0
2015-Jun-24 01:29N 47°18' W 002°08'0 0.0
2015-Jun-24 00:23N 47°18' W 002°08'0 0.0
2015-Jun-23 21:29N 47°18' W 002°08'0 0.0
2015-Jun-23 20:32N 47°18' W 002°08'5 5.0
2015-Jun-23 19:32N 47°15' W 002°14'4 8.7
2015-Jun-23 19:05N 47°12' W 002°17'8 0.3
2015-Jun-22 19:32N 47°07' W 002°26'0 0.0
2015-Jun-22 18:32N 47°07' W 002°26'0 0.0
2015-Jun-22 17:32N 47°07' W 002°26'0 0.0
2015-Jun-22 16:32N 47°07' W 002°26'0 0.0
2015-Jun-22 15:32N 47°07' W 002°26'0 0.0
2015-Jun-22 14:32N 47°07' W 002°26'0 0.1
2015-Jun-22 13:32N 47°07' W 002°26'0 0.0
2015-Jun-22 12:23N 47°07' W 002°26'0 0.0
2015-Jun-22 11:32N 47°07' W 002°26'0 0.0
2015-Jun-22 10:32N 47°07' W 002°26'0 0.1
2015-Jun-22 09:32N 47°07' W 002°26'0 0.0
2015-Jun-22 08:32N 47°07' W 002°26'0 0.1
2015-Jun-22 07:32N 47°07' W 002°26'0 0.0
2015-Jun-22 06:32N 47°07' W 002°26'0 0.0
2015-Jun-22 05:32N 47°07' W 002°26'0 0.0
2015-Jun-22 04:14N 47°07' W 002°26'0 0.1
2015-Jun-22 03:32N 47°07' W 002°26'0 0.1
2015-Jun-22 02:32N 47°07' W 002°26'0 0.1
2015-Jun-22 01:32N 47°07' W 002°27'0 0.0
2015-Jun-22 00:32N 47°07' W 002°27'  
Track history (hours):
 
Tides and Currents Weather Stations Pressure Air Temp Water Temp Dewpoint Dewpoint Depression Visibility Wind Speed Wind Dir Waves Ship Positions

Cfl Performer

Last reported at 2015-Jul-01 23:33 UTC. Time now 2015-Jul-03 22:02 UTC.
Position N 50°06' W 002°17'.

Length 117 m; draft 6.1 m.

Type: Cargo ship. MMSI: 244989000.

Date/timePositionNaut miles runAvg speedWind from/ knotsBaromVisibWave heightAir tempDewpointWater temp
2015-Jul-01 23:33N 50°06' W 002°17'1110.5
2015-Jul-01 22:31N 50°09' W 002°01'8 8.7
2015-Jul-01 21:34N 50°11' W 001°48'8 7.2
2015-Jul-01 20:31N 50°13' W 001°37'32 7.8
2015-Jul-01 16:24N 50°22' W 000°49'3911.8
2015-Jul-01 13:08N 50°32' E 000°09'611.1
2015-Jul-01 12:34N 50°34' E 000°19'1110.6
2015-Jul-01 11:33N 50°37' E 000°35'9 9.4
2015-Jul-01 10:34N 50°43' E 000°47'9 9.2
2015-Jul-01 09:33N 50°49' E 000°58'10 9.7
2015-Jul-01 08:33N 50°55' E 001°10'1111.3
2015-Jul-01 07:33N 51°02' E 001°24'1413.6
2015-Jul-01 06:33N 51°11' E 001°40'1212.1
2015-Jul-01 05:33N 51°21' E 001°51'1110.7
2015-Jul-01 04:33N 51°30' E 001°60'1010.0
2015-Jul-01 03:33N 51°38' E 002°10'9 9.4
2015-Jul-01 02:33N 51°45' E 002°21'9 9.0
2015-Jul-01 01:32N 51°51' E 002°31'17 8.6
2015-Jun-30 23:33N 52°02' E 002°53'1110.1
2015-Jun-30 22:31N 52°02' E 003°10'1210.9
2015-Jun-30 21:27N 52°03' E 003°29'1011.7
2015-Jun-30 20:33N 52°04' E 003°46'1110.7
2015-Jun-30 19:33N 51°60' E 004°02'1212.1
2015-Jun-30 18:33N 51°54' E 004°19'9 8.5
2015-Jun-30 17:33N 51°50' E 004°31'7 7.1
2015-Jun-30 16:33N 51°44' E 004°38'3 3.0
2015-Jun-30 15:33N 51°41' E 004°36'0 0.0
2015-Jun-30 14:12N 51°41' E 004°36'0 0.0
2015-Jun-30 13:33N 51°41' E 004°36'0 0.0
2015-Jun-30 12:33N 51°41' E 004°36'0 0.0
2015-Jun-30 11:12N 51°41' E 004°36'0 0.0
2015-Jun-30 10:33N 51°41' E 004°36'0 0.0
2015-Jun-30 09:33N 51°41' E 004°36'0 0.0
2015-Jun-30 08:30N 51°41' E 004°36'0 0.0
2015-Jun-30 07:27N 51°41' E 004°36'0 0.0
2015-Jun-30 06:24N 51°41' E 004°36'0 0.0
2015-Jun-30 05:33N 51°41' E 004°36'0 0.0
2015-Jun-30 04:30N 51°41' E 004°36'0 0.0
2015-Jun-30 03:33N 51°41' E 004°36'0 0.0
2015-Jun-30 02:30N 51°41' E 004°36'0 0.0
2015-Jun-30 01:33N 51°41' E 004°36'0 0.0
2015-Jun-30 00:33N 51°41' E 004°36'0 0.0
2015-Jun-29 23:30N 51°41' E 004°36'0 0.0
2015-Jun-29 22:21N 51°41' E 004°36'0 0.0
2015-Jun-29 21:24N 51°41' E 004°36'0 0.0
2015-Jun-29 20:06N 51°41' E 004°36'0 0.0
2015-Jun-29 19:30N 51°41' E 004°36'0 0.0
2015-Jun-29 17:21N 51°41' E 004°36'0 0.0
2015-Jun-29 16:33N 51°41' E 004°36'0 0.0
2015-Jun-29 15:33N 51°41' E 004°36'0 0.0
2015-Jun-29 14:30N 51°41' E 004°36'0 0.0
2015-Jun-29 13:33N 51°41' E 004°36'0 0.0
2015-Jun-29 12:21N 51°41' E 004°36'0 0.0
2015-Jun-29 11:30N 51°41' E 004°36'0 0.0
2015-Jun-29 10:30N 51°41' E 004°36'0 0.0
2015-Jun-29 09:30N 51°41' E 004°36'0 0.0
2015-Jun-29 08:15N 51°41' E 004°36'0 0.0
2015-Jun-29 07:30N 51°41' E 004°36'0 0.0
2015-Jun-29 06:27N 51°41' E 004°36'0 0.0
2015-Jun-29 05:30N 51°41' E 004°36'0 0.0
2015-Jun-29 04:30N 51°41' E 004°36'0 0.0
2015-Jun-29 03:33N 51°41' E 004°36'0 0.0
2015-Jun-29 02:30N 51°41' E 004°36'0 0.0
2015-Jun-29 01:30N 51°41' E 004°36'0 0.0
2015-Jun-29 00:30N 51°41' E 004°36'0 0.0
2015-Jun-28 23:33N 51°41' E 004°36'0 0.0
2015-Jun-28 22:30N 51°41' E 004°36'0 0.0
2015-Jun-28 21:30N 51°41' E 004°36'0 0.0
2015-Jun-28 20:33N 51°41' E 004°36'0 0.0
2015-Jun-28 19:33N 51°41' E 004°36'0 0.0
2015-Jun-28 18:30N 51°41' E 004°36'0 0.0
2015-Jun-28 17:30N 51°41' E 004°36'0 0.0
2015-Jun-28 16:33N 51°41' E 004°36'0 0.0
2015-Jun-28 15:30N 51°41' E 004°36'0 0.0
2015-Jun-28 14:30N 51°41' E 004°36'0 0.0
2015-Jun-28 13:24N 51°41' E 004°36'0 0.0
2015-Jun-28 12:30N 51°41' E 004°36'0 0.0
2015-Jun-28 11:30N 51°41' E 004°36'0 0.0
2015-Jun-28 09:30N 51°41' E 004°36'0 0.0
2015-Jun-28 08:24N 51°41' E 004°36'0 0.0
2015-Jun-28 07:30N 51°41' E 004°36'0 0.0
2015-Jun-28 06:33N 51°41' E 004°36'0 0.0
2015-Jun-28 05:30N 51°41' E 004°36'0 0.0
2015-Jun-28 04:33N 51°41' E 004°36'0 0.0
2015-Jun-28 03:30N 51°41' E 004°36'0 0.0
2015-Jun-28 02:33N 51°41' E 004°36'0 0.0
2015-Jun-28 01:33N 51°41' E 004°36'0 0.0
2015-Jun-28 00:30N 51°41' E 004°36'0 0.0
2015-Jun-27 23:33N 51°41' E 004°36'0 0.0
2015-Jun-27 22:33N 51°41' E 004°36'0 0.0
2015-Jun-27 21:33N 51°41' E 004°36'0 0.0
2015-Jun-27 20:30N 51°41' E 004°36'0 0.0
2015-Jun-27 19:33N 51°41' E 004°36'0 0.0
2015-Jun-27 18:33N 51°41' E 004°36'0 0.0
2015-Jun-27 17:33N 51°41' E 004°36'0 0.0
2015-Jun-27 16:33N 51°41' E 004°36'0 0.0
2015-Jun-27 15:30N 51°41' E 004°36'0 0.0
2015-Jun-27 14:27N 51°41' E 004°36'0 0.0
2015-Jun-27 13:33N 51°41' E 004°36'0 0.0
2015-Jun-27 12:33N 51°41' E 004°36'0 0.0
2015-Jun-27 11:27N 51°41' E 004°36'0 0.0
2015-Jun-27 10:33N 51°41' E 004°36'0 0.0
2015-Jun-27 09:33N 51°41' E 004°36'0 0.0
2015-Jun-27 08:30N 51°41' E 004°36'0 0.0
2015-Jun-27 07:30N 51°41' E 004°36'0 0.0
2015-Jun-27 06:33N 51°41' E 004°36'7 6.8
2015-Jun-27 05:34N 51°48' E 004°37'9 9.3
2015-Jun-27 04:33N 51°51' E 004°22'8 8.5
2015-Jun-27 03:33N 51°56' E 004°12'10 9.7
2015-Jun-27 02:33N 51°60' E 003°57'1110.6
2015-Jun-27 01:33N 51°58' E 003°40'1111.1
2015-Jun-27 00:34N 51°55' E 003°23'3410.9
2015-Jun-26 21:28N 51°42' E 002°33'1311.6
2015-Jun-26 20:23N 51°33' E 002°19'1012.4
2015-Jun-26 19:33N 51°25' E 002°09'1211.7
2015-Jun-26 18:33N 51°14' E 002°04'1312.6
2015-Jun-26 17:34N 51°07' E 001°47'1313.0
2015-Jun-26 16:33N 50°58' E 001°31'1311.9
2015-Jun-26 15:26N 50°46' E 001°23'1211.4
2015-Jun-26 14:25N 50°37' E 001°12'1012.0
2015-Jun-26 13:33N 50°30' E 000°59'1512.1
2015-Jun-26 12:19N 50°25' E 000°37'911.4
2015-Jun-26 11:33N 50°23' E 000°24'1210.8
2015-Jun-26 10:28N 50°20' E 000°06'1111.5
2015-Jun-26 09:33N 50°17' W 000°10'1211.2
2015-Jun-26 08:31N 50°14' W 000°28'2711.1
2015-Jun-26 06:06N 50°07' W 001°08'611.3
2015-Jun-26 05:33N 50°06' W 001°17'1111.3
2015-Jun-26 04:33N 50°03' W 001°34'1111.2
2015-Jun-26 03:33N 49°59' W 001°51'1211.6
2015-Jun-26 02:33N 49°56' W 002°09'1111.4
2015-Jun-26 01:33N 49°53' W 002°25'8111.4
2015-Jun-25 18:24N 49°17' W 004°18'7011.2
2015-Jun-25 12:07N 48°35' W 005°44'1811.3
2015-Jun-25 10:33N 48°19' W 005°32'1111.3
2015-Jun-25 09:33N 48°09' W 005°24'1211.4
2015-Jun-25 08:28N 47°58' W 005°15'1011.3
2015-Jun-25 07:34N 47°53' W 005°02'1211.6
2015-Jun-25 06:33N 47°47' W 004°47'1211.5
2015-Jun-25 05:33N 47°42' W 004°32'1211.7
2015-Jun-25 04:33N 47°36' W 004°17'1211.7
2015-Jun-25 03:32N 47°30' W 004°02'1211.9
2015-Jun-25 02:33N 47°24' W 003°47'1211.8
2015-Jun-25 01:33N 47°18' W 003°31'1111.6
2015-Jun-25 00:33N 47°15' W 003°15'1212.0
2015-Jun-24 23:33N 47°13' W 002°58'1211.8
2015-Jun-24 22:33N 47°10' W 002°41'1211.7
2015-Jun-24 21:33N 47°08' W 002°24'10 9.9
2015-Jun-24 20:33N 47°15' W 002°14'5 5.2
2015-Jun-24 19:32N 47°18' W 002°08'0 0.0
2015-Jun-24 18:23N 47°18' W 002°08'0 0.0
2015-Jun-24 07:20N 47°18' W 002°08'0 0.0
2015-Jun-24 06:32N 47°18' W 002°08'0 0.0
2015-Jun-24 05:32N 47°18' W 002°08'0 0.0
2015-Jun-24 04:32N 47°18' W 002°08'0 0.0
2015-Jun-24 03:26N 47°18' W 002°08'0 0.0
2015-Jun-24 02:32N 47°18' W 002°08'0 0.0
2015-Jun-24 01:29N 47°18' W 002°08'0 0.0
2015-Jun-24 00:23N 47°18' W 002°08'0 0.0
2015-Jun-23 21:29N 47°18' W 002°08'0 0.0
2015-Jun-23 20:32N 47°18' W 002°08'5 5.0
2015-Jun-23 19:32N 47°15' W 002°14'4 8.7
2015-Jun-23 19:05N 47°12' W 002°17'8 0.3
2015-Jun-22 19:32N 47°07' W 002°26'0 0.0
2015-Jun-22 18:32N 47°07' W 002°26'0 0.0
2015-Jun-22 17:32N 47°07' W 002°26'0 0.0
2015-Jun-22 16:32N 47°07' W 002°26'0 0.0
2015-Jun-22 15:32N 47°07' W 002°26'0 0.0
2015-Jun-22 14:32N 47°07' W 002°26'0 0.1
2015-Jun-22 13:32N 47°07' W 002°26'0 0.0
2015-Jun-22 12:23N 47°07' W 002°26'0 0.0
2015-Jun-22 11:32N 47°07' W 002°26'0 0.0
2015-Jun-22 10:32N 47°07' W 002°26'0 0.1
2015-Jun-22 09:32N 47°07' W 002°26'0 0.0
2015-Jun-22 08:32N 47°07' W 002°26'0 0.1
2015-Jun-22 07:32N 47°07' W 002°26'0 0.0
2015-Jun-22 06:32N 47°07' W 002°26'0 0.0
2015-Jun-22 05:32N 47°07' W 002°26'0 0.0
2015-Jun-22 04:14N 47°07' W 002°26'0 0.1
2015-Jun-22 03:32N 47°07' W 002°26'0 0.1
2015-Jun-22 02:32N 47°07' W 002°26'0 0.1
2015-Jun-22 01:32N 47°07' W 002°27'0 0.0
2015-Jun-22 00:32N 47°07' W 002°27'  

Dump ship's entire track history